Time;durP1;ratioP1;P1;durP2;ratioP2;P2;SDS_P1;SDS_P2;PMS_P1;PMS_P2;Temp;Humidity;BMP_temperature;BMP_pressure;BME280_temperature;BME280_humidity;BME280_pressure;Samples;Min_cycle;Max_cycle;Signal;HPM_P1;HPM_P2
2021/12/30 00:00:55;;;;;;;52.28;36.08;;;;;;;3.44;100.00;99836.84;6123109;23;20029;-84
2021/12/30 00:03:21;;;;;;;51.65;36.22;;;;;;;3.44;100.00;99839.59;6097287;23;20018;-84
2021/12/30 00:05:47;;;;;;;45.72;33.67;;;;;;;3.40;100.00;99844.28;6123906;23;20071;-84
2021/12/30 00:08:13;;;;;;;52.10;36.60;;;;;;;3.37;100.00;99840.38;6123872;23;20018;-78
2021/12/30 00:10:40;;;;;;;47.22;33.63;;;;;;;3.32;100.00;99843.50;6123790;23;20378;-78
2021/12/30 00:13:06;;;;;;;47.75;34.10;;;;;;;3.31;100.00;99857.59;6123704;23;20068;-78
2021/12/30 00:15:32;;;;;;;82.03;38.85;;;;;;;3.28;100.00;99861.91;6124044;23;20025;-78
2021/12/30 00:17:57;;;;;;;124.30;39.47;;;;;;;3.31;100.00;99855.66;6097380;23;20014;-78
2021/12/30 00:20:23;;;;;;;187.02;40.40;;;;;;;3.27;100.00;99863.88;6097964;23;20021;-78
2021/12/30 00:22:49;;;;;;;196.52;41.08;;;;;;;3.29;100.00;99871.69;6124004;23;20034;-78
2021/12/30 00:25:15;;;;;;;344.77;43.15;;;;;;;3.19;100.00;99865.06;6123746;23;20014;-78
2021/12/30 00:27:41;;;;;;;159.48;40.15;;;;;;;3.21;100.00;99870.13;6123505;23;20021;-78
2021/12/30 00:30:09;;;;;;;146.68;39.80;;;;;;;3.17;100.00;99869.34;6097909;23;20017;-84
2021/12/30 00:32:34;;;;;;;98.68;38.15;;;;;;;3.06;100.00;99868.56;6097384;23;20360;-84
2021/12/30 00:35:00;;;;;;;175.95;38.80;;;;;;;3.05;100.00;99877.94;6123701;23;20009;-84
2021/12/30 00:37:25;;;;;;;157.07;40.63;;;;;;;2.96;100.00;99885.75;6123622;23;20021;-84
2021/12/30 00:39:51;;;;;;;150.63;40.15;;;;;;;2.91;100.00;99872.47;6123581;23;20014;-84
2021/12/30 00:42:17;;;;;;;176.57;40.75;;;;;;;2.90;100.00;99881.84;6097808;23;20014;-84
2021/12/30 00:44:42;;;;;;;100.90;37.88;;;;;;;2.91;100.00;99876.00;6123349;23;20065;-84
2021/12/30 00:47:08;;;;;;;160.02;40.40;;;;;;;2.93;100.00;99892.03;6123865;23;20021;-84
2021/12/30 00:49:33;;;;;;;142.18;41.15;;;;;;;2.89;100.00;99883.81;6123862;23;20017;-84
2021/12/30 00:51:59;;;;;;;131.85;38.58;;;;;;;2.93;100.00;99883.81;6122892;23;20468;-84
2021/12/30 00:54:25;;;;;;;144.80;37.03;;;;;;;2.88;100.00;99874.00;6097851;23;20009;-84
2021/12/30 00:56:51;;;;;;;96.95;34.03;;;;;;;2.90;100.00;99882.63;6123125;23;20344;-84
2021/12/30 00:59:17;;;;;;;151.07;35.88;;;;;;;2.90;100.00;99899.06;6123793;23;20089;-84
2021/12/30 01:01:43;;;;;;;103.05;34.85;;;;;;;2.88;100.00;99897.88;6122732;23;20053;-84
2021/12/30 01:04:08;;;;;;;104.82;35.05;;;;;;;2.79;100.00;99890.81;6097658;23;20326;-78
2021/12/30 01:06:34;;;;;;;241.00;38.72;;;;;;;2.85;100.00;99890.44;6123827;23;20021;-78
2021/12/30 01:09:00;;;;;;;228.20;39.72;;;;;;;2.85;100.00;99901.41;6123121;23;20045;-84
2021/12/30 01:11:26;;;;;;;189.82;38.95;;;;;;;2.86;100.00;99886.53;6123478;23;20034;-84
2021/12/30 01:14:09;;;;;;;83.65;36.20;;;;;;;2.91;100.00;99891.66;6097964;23;20014;-84
2021/12/30 01:16:41;;;;;;;191.60;38.13;;;;;;;2.90;100.00;99870.91;6077140;23;20017;-84
2021/12/30 01:21:53;;;;;;;78.65;35.60;;;;;;;2.94;100.00;99874.44;6123353;23;20475;-84
2021/12/30 01:24:19;;;;;;;139.63;36.88;;;;;;;2.97;100.00;99862.69;6123889;23;20081;-84
2021/12/30 01:26:46;;;;;;;118.47;36.53;;;;;;;2.98;100.00;99877.94;6123095;23;20508;-85
2021/12/30 01:29:11;;;;;;;202.80;37.75;;;;;;;2.91;100.00;99876.00;6122067;23;20029;-84
2021/12/30 01:31:37;;;;;;;72.00;34.03;;;;;;;2.94;100.00;99877.16;6097619;23;20328;-84
2021/12/30 01:34:02;;;;;;;80.80;33.83;;;;;;;2.98;100.00;99875.22;6123034;23;20017;-84
2021/12/30 01:36:28;;;;;;;82.70;33.13;;;;;;;2.97;100.00;99882.66;6123612;23;20017;-84
2021/12/30 01:38:55;;;;;;;145.23;37.47;;;;;;;3.01;100.00;99882.66;6125172;23;20014;-84
2021/12/30 01:41:22;;;;;;;165.13;36.65;;;;;;;3.01;100.00;99885.38;6125221;23;20014;-84
2021/12/30 01:43:47;;;;;;;172.52;34.55;;;;;;;3.03;100.00;99888.53;6124956;23;20068;-84
2021/12/30 01:46:15;;;;;;;138.13;35.45;;;;;;;2.97;100.00;99881.84;6125561;23;20425;-84
2021/12/30 01:48:40;;;;;;;206.55;35.08;;;;;;;3.03;100.00;99880.31;6125128;23;20344;-84
2021/12/30 01:51:06;;;;;;;140.30;35.78;;;;;;;3.02;100.00;99881.47;6099512;23;20014;-84
2021/12/30 01:53:32;;;;;;;61.90;31.48;;;;;;;3.01;100.00;99882.66;6124985;23;20014;-84
2021/12/30 01:55:59;;;;;;;123.22;31.25;;;;;;;3.00;100.00;99870.91;6125416;23;20018;-84
2021/12/30 01:58:24;;;;;;;194.13;34.08;;;;;;;3.05;100.00;99869.72;6124873;23;20013;-84
2021/12/30 02:03:33;;;;;;;108.53;33.03;;;;;;;2.92;100.00;99857.56;6171173;23;20035;-80
2021/12/30 02:05:59;;;;;;;197.68;35.53;;;;;;;2.95;100.00;99859.56;6182271;23;20084;-80
2021/12/30 02:08:24;;;;;;;97.47;32.55;;;;;;;2.91;100.00;99867.78;6158096;23;20044;-80
2021/12/30 02:10:50;;;;;;;122.38;32.05;;;;;;;2.90;100.00;99877.16;6184120;23;20013;-80
2021/12/30 02:13:17;;;;;;;141.13;34.15;;;;;;;2.86;100.00;99881.06;6157752;23;20442;-79
2021/12/30 02:15:43;;;;;;;99.00;31.73;;;;;;;2.83;100.00;99877.16;6184590;23;20035;-80
2021/12/30 02:18:08;;;;;;;113.15;32.70;;;;;;;2.80;100.00;99886.13;6183554;23;20498;-80
2021/12/30 02:20:54;;;;;;;95.53;30.70;;;;;;;2.77;100.00;99890.44;6182726;23;20016;-80
2021/12/30 02:23:28;;;;;;;110.72;31.42;;;;;;;2.75;100.00;99902.97;6184254;23;20424;-80
2021/12/30 02:25:55;;;;;;;;;;;;;;;2.77;100.00;99906.09;6158459;23;20067;-80
2021/12/30 02:28:23;;;;;;;103.38;31.02;;;;;;;2.71;100.00;99891.97;6158010;23;19912;-80
2021/12/30 02:30:50;;;;;;;123.88;32.72;;;;;;;2.74;100.00;99902.19;6133235;23;20387;-80
2021/12/30 02:33:16;;;;;;;79.05;31.40;;;;;;;2.74;100.00;99907.66;6157588;23;20009;-80
2021/12/30 02:35:41;;;;;;;109.35;35.83;;;;;;;2.80;100.00;99928.00;6184276;23;20013;-80
2021/12/30 02:38:07;;;;;;;110.38;37.90;;;;;;;2.80;100.00;99917.03;6183523;23;20084;-80
2021/12/30 02:40:44;;;;;;;96.90;40.88;;;;;;;2.79;100.00;99918.22;6157645;23;20072;-80
2021/12/30 02:43:13;;;;;;;75.55;38.88;;;;;;;2.78;100.00;99913.94;6183703;23;20021;-80
2021/12/30 02:45:39;;;;;;;80.70;38.10;;;;;;;2.83;100.00;99917.47;6184270;23;20035;-80
2021/12/30 02:48:05;;;;;;;95.85;34.15;;;;;;;2.83;100.00;99924.47;6183064;23;20033;-80
2021/12/30 02:50:31;;;;;;;101.88;34.47;;;;;;;2.85;100.00;99932.31;6157965;23;20378;-80
2021/12/30 02:52:56;;;;;;;66.22;32.80;;;;;;;2.75;100.00;99925.63;6183832;23;20015;-80
2021/12/30 02:55:22;;;;;;;69.88;33.60;;;;;;;2.85;100.00;99928.78;6184392;23;20079;-80
2021/12/30 02:57:48;;;;;;;81.53;33.25;;;;;;;2.76;100.00;99921.72;6184114;23;20013;-80
2021/12/30 03:00:14;;;;;;;83.10;32.22;;;;;;;2.84;100.00;99933.50;6183706;23;20037;-79
2021/12/30 03:02:40;;;;;;;69.35;30.27;;;;;;;2.78;100.00;99938.56;6183524;23;20021;-80
2021/12/30 03:05:08;;;;;;;100.22;31.75;;;;;;;2.77;100.00;99937.00;6157729;23;20020;-80
2021/12/30 03:07:34;;;;;;;78.30;30.83;;;;;;;2.77;100.00;99944.44;6157771;23;20013;-80
2021/12/30 03:10:00;;;;;;;73.72;30.58;;;;;;;2.74;100.00;99940.53;6183967;23;20577;-80
2021/12/30 03:12:25;;;;;;;121.43;33.30;;;;;;;2.63;100.00;99931.47;6157424;23;20028;-80
2021/12/30 03:14:51;;;;;;;98.22;32.97;;;;;;;2.57;100.00;99940.44;6184055;23;20005;-80
2021/12/30 03:17:17;;;;;;;77.28;34.75;;;;;;;2.61;100.00;99952.19;6157429;23;20063;-80
2021/12/30 03:19:43;;;;;;;64.80;33.00;;;;;;;2.56;100.00;99947.09;6157415;23;20016;-80
2021/12/30 03:22:09;;;;;;;54.45;31.63;;;;;;;2.61;100.00;99958.47;6183508;23;19997;-80
2021/12/30 03:24:37;;;;;;;66.70;31.55;;;;;;;2.62;100.00;99960.03;6132646;23;20047;-80
2021/12/30 03:27:06;;;;;;;49.17;30.83;;;;;;;2.66;100.00;99960.84;6184056;23;20012;-80
2021/12/30 03:29:32;;;;;;;44.78;30.00;;;;;;;2.71;100.00;99963.19;6183392;23;20009;-80
2021/12/30 03:31:57;;;;;;;40.95;28.10;;;;;;;2.67;100.00;99953.41;6157531;23;20032;-80
2021/12/30 03:34:23;;;;;;;48.33;30.48;;;;;;;2.69;100.00;99940.88;6183335;23;20013;-79
2021/12/30 03:36:48;;;;;;;42.28;27.85;;;;;;;2.76;100.00;99937.38;6157718;23;20028;-80
2021/12/30 03:39:14;;;;;;;90.38;27.75;;;;;;;2.76;100.00;99965.56;6183411;23;20519;-80
2021/12/30 03:41:40;;;;;;;47.10;26.48;;;;;;;2.76;100.00;99968.28;6183906;23;20439;-80
2021/12/30 03:44:05;;;;;;;52.10;27.52;;;;;;;2.74;100.00;99994.50;6183831;23;20016;-80
2021/12/30 03:46:31;;;;;;;95.22;31.48;;;;;;;2.70;100.00;100002.72;6183957;23;20458;-80
2021/12/30 03:48:58;;;;;;;73.57;29.50;;;;;;;2.64;100.00;100003.44;6156975;23;20045;-80
2021/12/30 03:51:25;;;;;;;85.32;28.52;;;;;;;2.57;100.00;100012.44;6183314;23;20027;-80
2021/12/30 03:53:53;;;;;;;49.80;29.15;;;;;;;2.59;100.00;100017.53;6181652;23;20009;-80
2021/12/30 03:56:23;;;;;;;52.65;29.08;;;;;;;2.60;100.00;100011.66;6183324;23;20013;-80
2021/12/30 03:58:49;;;;;;;46.38;28.73;;;;;;;2.58;100.00;99997.59;6131907;23;20020;-80
2021/12/30 04:01:18;;;;;;;41.13;28.40;;;;;;;2.65;100.00;100003.09;6182772;23;20044;-80
2021/12/30 04:03:44;;;;;;;46.10;29.15;;;;;;;2.66;100.00;99993.69;6182706;23;20020;-80
2021/12/30 04:06:09;;;;;;;49.53;30.65;;;;;;;2.63;100.00;99993.69;6156448;23;20021;-80
2021/12/30 04:08:36;;;;;;;50.28;31.80;;;;;;;2.65;100.00;99988.59;6182708;23;20001;-80
2021/12/30 04:11:01;;;;;;;88.38;45.85;;;;;;;2.65;100.00;100003.09;6181627;23;20336;-80
2021/12/30 04:13:27;;;;;;;73.25;43.72;;;;;;;2.61;100.00;99990.53;6156581;23;20007;-80
2021/12/30 04:15:53;;;;;;;84.13;42.92;;;;;;;2.59;100.00;99996.38;6132354;23;20099;-80
2021/12/30 04:18:19;;;;;;;78.75;43.05;;;;;;;2.57;100.00;100006.16;6182694;23;20019;-80
2021/12/30 04:20:46;;;;;;;74.07;41.22;;;;;;;2.55;100.00;99998.31;6183086;23;20016;-80
2021/12/30 04:23:12;;;;;;;54.33;33.67;;;;;;;2.52;100.00;100023.75;6182484;23;20458;-80
2021/12/30 04:25:38;;;;;;;45.35;30.85;;;;;;;2.58;100.00;100021.44;6183123;23;20009;-80
2021/12/30 04:28:04;;;;;;;45.03;28.08;;;;;;;2.66;100.00;100026.56;6182664;23;20016;-80
2021/12/30 04:30:29;;;;;;;44.10;27.10;;;;;;;2.67;100.00;100032.84;6182493;23;20012;-80
2021/12/30 04:32:55;;;;;;;37.90;26.25;;;;;;;2.64;100.00;100023.41;6156772;23;20017;-80
2021/12/30 04:35:20;;;;;;;39.85;26.60;;;;;;;2.66;100.00;100015.63;6156425;23;20004;-80
2021/12/30 04:37:46;;;;;;;71.22;36.97;;;;;;;2.65;100.00;100025.00;6156628;23;20474;-80
2021/12/30 04:40:13;;;;;;;67.35;36.88;;;;;;;2.69;100.00;100042.22;6155729;23;20036;-80
2021/12/30 04:42:39;;;;;;;113.32;61.58;;;;;;;2.69;100.00;100047.69;6156682;23;20001;-80
2021/12/30 04:45:05;;;;;;;103.25;59.60;;;;;;;2.62;100.00;100033.97;6156726;23;20013;-80
2021/12/30 04:47:31;;;;;;;90.18;54.10;;;;;;;2.66;100.00;100048.47;6182732;23;20028;-79
2021/12/30 04:49:57;;;;;;;95.47;57.90;;;;;;;2.63;100.00;100038.25;6156309;23;20151;-79
2021/12/30 04:52:24;;;;;;;91.40;57.08;;;;;;;2.58;100.00;100041.38;6182634;23;20069;-80
2021/12/30 04:54:50;;;;;;;80.68;53.42;;;;;;;2.60;100.00;100039.03;6182585;23;20077;-80
2021/12/30 04:57:16;;;;;;;71.85;46.45;;;;;;;2.57;100.00;100034.34;6156258;23;20013;-80
2021/12/30 04:59:41;;;;;;;62.38;41.35;;;;;;;2.57;100.00;100050.78;6155631;23;20020;-80
2021/12/30 05:02:07;;;;;;;47.92;32.58;;;;;;;2.56;100.00;100038.25;6182499;23;20005;-80
2021/12/30 05:04:33;;;;;;;45.72;31.15;;;;;;;2.51;100.00;100035.84;6155838;23;20017;-80
2021/12/30 05:07:00;;;;;;;49.30;30.77;;;;;;;2.55;100.00;100042.13;6182494;23;20704;-80
2021/12/30 05:09:25;;;;;;;54.47;30.60;;;;;;;2.54;100.00;100043.31;6155843;23;20071;-80
2021/12/30 05:11:51;;;;;;;66.18;32.03;;;;;;;2.53;100.00;100044.50;6156586;23;20017;-79
2021/12/30 05:14:17;;;;;;;48.00;30.60;;;;;;;2.51;100.00;100048.78;6155937;23;20044;-80
2021/12/30 05:16:44;;;;;;;49.03;31.27;;;;;;;2.55;100.00;100061.31;6156255;23;20021;-80
2021/12/30 05:19:09;;;;;;;46.17;31.67;;;;;;;2.51;100.00;100057.00;6181985;23;20458;-80
2021/12/30 05:21:35;;;;;;;48.85;31.63;;;;;;;2.52;100.00;100067.56;6182932;23;20080;-80
2021/12/30 05:24:00;;;;;;;49.42;31.75;;;;;;;2.49;100.00;100051.91;6156485;23;20005;-80
2021/12/30 05:26:28;;;;;;;47.35;32.13;;;;;;;2.46;100.00;100049.13;6156693;23;20009;-80
2021/12/30 05:28:58;;;;;;;46.60;31.90;;;;;;;2.48;100.00;100055.78;6156085;23;20039;-80
2021/12/30 05:31:24;;;;;;;46.78;31.40;;;;;;;2.56;100.00;100073.03;6155964;23;20021;-80
2021/12/30 05:33:50;;;;;;;46.35;30.52;;;;;;;2.50;100.00;100074.59;6182604;23;20599;-80
2021/12/30 05:36:16;;;;;;;41.67;30.08;;;;;;;2.58;100.00;100093.41;6181576;23;20084;-80
2021/12/30 05:38:41;;;;;;;40.55;28.75;;;;;;;2.54;100.00;100078.13;6182381;23;20447;-80
2021/12/30 05:41:07;;;;;;;42.65;30.52;;;;;;;2.59;100.00;100092.22;6182290;23;20004;-80
2021/12/30 05:43:32;;;;;;;43.78;31.15;;;;;;;2.61;100.00;100089.91;6182471;23;20013;-80
2021/12/30 05:45:58;;;;;;;46.03;31.20;;;;;;;2.56;100.00;100087.53;6183026;23;20013;-80
2021/12/30 05:48:23;;;;;;;44.78;30.77;;;;;;;2.55;100.00;100085.19;6182719;23;20019;-80
2021/12/30 05:50:49;;;;;;;47.63;31.00;;;;;;;2.51;100.00;100098.81;6182762;23;20075;-80
2021/12/30 05:53:15;;;;;;;44.83;30.95;;;;;;;2.52;100.00;100096.88;6182239;23;20024;-80
2021/12/30 05:55:40;;;;;;;55.13;29.92;;;;;;;2.55;100.00;100101.63;6182754;23;20013;-80
2021/12/30 05:58:05;;;;;;;159.82;28.23;;;;;;;2.43;100.00;100105.41;6156255;23;20339;-79
2021/12/30 06:00:31;;;;;;;38.97;25.63;;;;;;;2.49;100.00;100094.91;6180789;23;20467;-80
2021/12/30 06:02:58;;;;;;;57.95;25.70;;;;;;;2.50;100.00;100091.00;6182232;23;20013;-80
2021/12/30 06:05:23;;;;;;;161.77;29.25;;;;;;;2.52;100.00;100102.34;6182059;23;20066;-80
2021/12/30 06:07:49;;;;;;;137.73;29.58;;;;;;;2.52;100.00;100097.66;6156348;23;20042;-80
2021/12/30 06:10:15;;;;;;;200.68;33.25;;;;;;;2.51;100.00;100106.28;6181901;23;20013;-80
2021/12/30 06:12:43;;;;;;;53.80;28.70;;;;;;;2.48;100.00;100096.88;6156679;23;20005;-79
2021/12/30 06:15:09;;;;;;;99.47;31.15;;;;;;;2.46;100.00;100104.69;6182590;23;20020;-80
2021/12/30 06:17:37;;;;;;;86.07;30.65;;;;;;;2.46;100.00;100101.94;6182333;23;20001;-79
2021/12/30 06:20:07;;;;;;;116.78;32.00;;;;;;;2.41;100.00;100090.56;6181932;23;20009;-80
2021/12/30 06:22:32;;;;;;;47.83;28.45;;;;;;;2.39;100.00;100101.13;6182041;23;20017;-80
2021/12/30 06:24:58;;;;;;;61.90;29.25;;;;;;;2.49;100.00;100127.75;6184070;23;20019;-79
2021/12/30 06:27:23;;;;;;;38.40;28.73;;;;;;;2.48;100.00;100140.66;6182940;23;20013;-79
2021/12/30 06:29:49;;;;;;;47.65;31.05;;;;;;;2.47;100.00;100127.38;6184157;23;20016;-79
2021/12/30 06:32:14;;;;;;;80.05;32.10;;;;;;;2.40;100.00;100141.78;6184139;23;20013;-80
2021/12/30 06:34:40;;;;;;;64.25;33.08;;;;;;;2.38;100.00;100144.13;6157779;23;20005;-79
2021/12/30 06:37:05;;;;;;;50.05;33.08;;;;;;;2.36;100.00;100149.19;6156386;23;20458;-79
2021/12/30 06:39:31;;;;;;;56.65;34.28;;;;;;;2.42;100.00;100155.09;6181181;23;20008;-79
2021/12/30 06:41:56;;;;;;;51.90;33.45;;;;;;;2.44;100.00;100161.75;6182192;23;20013;-80
2021/12/30 06:44:22;;;;;;;52.08;30.90;;;;;;;2.40;100.00;100160.94;6181273;23;20013;-79
2021/12/30 06:46:57;;;;;;;49.13;32.95;;;;;;;2.42;100.00;100160.56;6155528;23;20001;-79
2021/12/30 06:49:23;;;;;;;41.78;29.55;;;;;;;2.41;100.00;100173.47;6157242;23;20355;-79
2021/12/30 06:51:49;;;;;;;43.97;29.95;;;;;;;2.43;100.00;100178.59;6179864;23;20023;-80
2021/12/30 06:54:15;;;;;;;40.97;28.85;;;;;;;2.37;100.00;100167.19;6131481;23;20064;-79
2021/12/30 06:56:41;;;;;;;38.83;28.08;;;;;;;2.37;100.00;100172.66;6155898;23;20013;-79
2021/12/30 06:59:06;;;;;;;41.65;28.48;;;;;;;2.38;100.00;100163.28;6181382;23;20423;-79
2021/12/30 07:01:32;;;;;;;42.70;29.13;;;;;;;2.39;100.00;100167.56;6155900;23;20340;-80
2021/12/30 07:03:57;;;;;;;41.53;28.20;;;;;;;2.42;100.00;100175.06;6182086;23;20017;-79
2021/12/30 07:06:23;;;;;;;40.95;27.38;;;;;;;2.39;100.00;100167.56;6183407;23;20009;-80
2021/12/30 07:08:49;;;;;;;40.53;27.60;;;;;;;2.42;100.00;100174.25;6183002;23;20021;-79
2021/12/30 07:11:14;;;;;;;39.95;27.08;;;;;;;2.48;100.00;100184.47;6132251;23;20013;-80
2021/12/30 07:13:40;;;;;;;40.85;27.35;;;;;;;2.54;100.00;100198.63;6183463;23;20013;-79
2021/12/30 07:16:06;;;;;;;39.08;27.42;;;;;;;2.50;100.00;100197.81;6155983;23;20013;-79
2021/12/30 07:18:31;;;;;;;39.05;26.52;;;;;;;2.49;100.00;100205.22;6156008;23;20005;-80
2021/12/30 07:20:57;;;;;;;41.67;28.20;;;;;;;2.52;100.00;100218.16;6156166;23;20017;-79
2021/12/30 07:23:22;;;;;;;42.85;29.02;;;;;;;2.56;100.00;100235.41;6181945;23;20020;-79
2021/12/30 07:25:48;;;;;;;42.03;28.33;;;;;;;2.56;100.00;100240.88;6181764;23;20092;-80
2021/12/30 07:28:14;;;;;;;40.63;28.08;;;;;;;2.60;100.00;100238.94;6132640;23;20005;-80
2021/12/30 07:30:39;;;;;;;41.70;27.65;;;;;;;2.69;100.00;100246.84;6157270;23;20040;-80
2021/12/30 07:33:07;;;;;;;35.92;25.70;;;;;;;2.72;100.00;100257.84;6157901;23;20009;-80
2021/12/30 07:35:34;;;;;;;45.78;30.55;;;;;;;2.72;100.00;100262.53;6183235;23;20013;-80
2021/12/30 07:38:00;;;;;;;48.13;32.75;;;;;;;2.65;100.00;100249.56;6157099;23;20025;-80
2021/12/30 07:40:25;;;;;;;43.80;29.52;;;;;;;2.64;100.00;100263.63;6183189;23;20016;-80
2021/12/30 07:42:51;;;;;;;43.35;28.98;;;;;;;2.65;100.00;100260.53;6132812;23;20009;-80
2021/12/30 07:45:17;;;;;;;42.47;29.08;;;;;;;2.71;100.00;100266.44;6181807;23;20017;-79
2021/12/30 07:47:43;;;;;;;43.78;30.10;;;;;;;2.75;100.00;100270.75;6157476;23;20040;-79
2021/12/30 07:50:10;;;;;;;42.70;29.35;;;;;;;2.78;100.00;100286.47;6157377;23;20450;-79
2021/12/30 07:52:37;;;;;;;44.72;29.58;;;;;;;2.79;100.00;100284.53;6156948;23;20024;-79
2021/12/30 07:55:05;;;;;;;44.03;30.38;;;;;;;2.88;100.00;100274.00;6157111;23;20028;-79
2021/12/30 07:57:31;;;;;;;41.38;29.92;;;;;;;2.93;100.00;100276.41;6156941;23;20005;-79
2021/12/30 07:59:56;;;;;;;41.00;28.98;;;;;;;2.93;100.00;100281.09;6156714;23;20462;-79
2021/12/30 08:02:24;;;;;;;41.78;29.10;;;;;;;2.97;100.00;100287.38;6131811;23;20443;-79
2021/12/30 08:04:50;;;;;;;42.63;29.25;;;;;;;3.00;100.00;100287.41;6182616;23;20017;-79
2021/12/30 08:07:20;;;;;;;47.15;31.30;;;;;;;3.00;100.00;100298.38;6181809;23;20086;-79
2021/12/30 08:09:45;;;;;;;51.28;33.47;;;;;;;2.92;100.00;100290.47;6156241;23;20013;-79
2021/12/30 08:12:11;;;;;;;48.97;33.33;;;;;;;2.98;100.00;100292.50;6155832;23;20012;-79
2021/12/30 08:14:36;;;;;;;52.53;33.55;;;;;;;3.03;100.00;100308.59;6155234;23;20387;-79
2021/12/30 08:17:02;;;;;;;51.22;35.30;;;;;;;3.04;100.00;100304.66;6181964;23;20116;-79
2021/12/30 08:19:28;;;;;;;50.38;34.92;;;;;;;3.09;100.00;100298.06;6155018;23;20033;-79
2021/12/30 08:21:53;;;;;;;52.97;35.53;;;;;;;3.08;100.00;100321.13;6131006;23;20025;-79
2021/12/30 08:24:19;;;;;;;54.55;36.53;;;;;;;3.03;100.00;100319.56;6155208;23;20198;-80
2021/12/30 08:26:44;;;;;;;56.72;37.45;;;;;;;3.15;100.00;100334.91;6131315;23;20083;-80
2021/12/30 08:29:10;;;;;;;56.00;38.00;;;;;;;3.22;100.00;100332.22;6182100;23;20001;-80
2021/12/30 08:31:36;;;;;;;59.20;39.33;;;;;;;3.14;100.00;100338.81;6130696;23;20406;-80
2021/12/30 08:34:03;;;;;;;53.58;37.08;;;;;;;3.13;100.00;100339.97;6155205;23;20017;-80
2021/12/30 08:36:28;;;;;;;57.38;38.85;;;;;;;3.19;100.00;100349.44;6155428;23;20036;-80
2021/12/30 08:38:54;;;;;;;53.25;36.85;;;;;;;3.22;100.00;100351.41;6155140;23;20682;-80
2021/12/30 08:41:20;;;;;;;56.20;38.80;;;;;;;3.34;100.00;100342.88;6181420;23;20028;-79
2021/12/30 08:43:45;;;;;;;50.67;35.63;;;;;;;3.36;100.00;100348.00;6130673;23;20299;-79
2021/12/30 08:46:11;;;;;;;53.88;36.63;;;;;;;3.32;100.00;100341.72;6130689;23;20021;-79
2021/12/30 08:48:37;;;;;;;54.60;37.08;;;;;;;3.39;100.00;100345.28;6154391;23;20040;-79
2021/12/30 08:51:04;;;;;;;52.45;35.70;;;;;;;3.44;100.00;100358.63;6181598;23;20009;-79
2021/12/30 08:53:29;;;;;;;51.70;37.25;;;;;;;3.47;100.00;100360.63;6181021;23;20037;-79
2021/12/30 08:55:56;;;;;;;56.78;37.15;;;;;;;3.58;100.00;100380.69;6181276;23;20001;-79
2021/12/30 08:58:21;;;;;;;50.92;35.90;;;;;;;3.61;100.00;100385.38;6181326;23;20009;-79
2021/12/30 09:00:47;;;;;;;46.63;34.63;;;;;;;3.69;100.00;100394.44;6155369;23;20013;-79
2021/12/30 09:03:14;;;;;;;49.13;34.22;;;;;;;3.66;100.00;100371.31;6156289;23;20039;-79
2021/12/30 09:05:40;;;;;;;50.13;34.65;;;;;;;3.60;100.00;100381.06;6156123;23;20368;-79
2021/12/30 09:08:06;;;;;;;45.30;34.35;;;;;;;3.62;100.00;100373.25;6182599;23;20044;-79
2021/12/30 09:10:40;;;;;;;52.45;37.60;;;;;;;3.65;100.00;100345.06;6180740;23;20020;-80
2021/12/30 09:13:08;;;;;;;50.85;35.75;;;;;;;3.64;100.00;100348.97;6181593;23;20009;-79
2021/12/30 09:15:33;;;;;;;50.97;36.05;;;;;;;3.68;100.00;100401.88;6155139;23;20009;-80
2021/12/30 09:17:59;;;;;;;53.28;37.03;;;;;;;3.68;100.00;100365.47;6156258;23;20066;-79
2021/12/30 09:20:25;;;;;;;56.00;38.63;;;;;;;3.63;100.00;100352.91;6155064;23;20067;-79
2021/12/30 09:22:52;;;;;;;55.25;38.47;;;;;;;3.64;100.00;100359.94;6179898;23;19993;-79
2021/12/30 09:25:22;;;;;;;56.15;38.00;;;;;;;3.70;100.00;100366.66;6180902;23;20020;-80
2021/12/30 09:27:48;;;;;;;58.03;39.08;;;;;;;3.73;100.00;100363.13;6156011;23;20016;-80
2021/12/30 09:30:14;;;;;;;55.95;37.40;;;;;;;3.73;100.00;100352.16;6180639;23;20020;-80
2021/12/30 09:32:40;;;;;;;59.65;40.08;;;;;;;3.81;100.00;100374.13;6181196;23;20016;-80
2021/12/30 09:35:07;;;;;;;57.75;37.33;;;;;;;3.87;100.00;100391.84;6181240;23;20013;-79
2021/12/30 09:37:32;;;;;;;53.08;37.88;;;;;;;3.85;100.00;100374.94;6155277;23;20040;-80
2021/12/30 09:39:59;;;;;;;53.25;37.53;;;;;;;3.89;100.00;100365.56;6181021;23;20001;-80
2021/12/30 09:42:25;;;;;;;54.72;38.28;;;;;;;3.84;100.00;100389.88;6154849;23;20036;-80
2021/12/30 09:44:50;;;;;;;56.85;39.80;;;;;;;3.88;100.00;100385.97;6175483;23;20004;-80
2021/12/30 09:47:16;;;;;;;57.15;38.47;;;;;;;3.90;100.00;100393.81;6178909;23;20016;-80
2021/12/30 09:49:41;;;;;;;61.97;41.67;;;;;;;3.97;100.00;100382.84;6153837;23;20021;-80
2021/12/30 09:52:07;;;;;;;57.75;40.47;;;;;;;4.03;100.00;100398.59;6180097;23;20020;-80
2021/12/30 09:54:32;;;;;;;56.92;39.83;;;;;;;4.07;100.00;100387.63;6153214;23;20321;-80
2021/12/30 09:56:58;;;;;;;57.15;40.53;;;;;;;4.03;100.00;100364.88;6180270;23;20079;-79
2021/12/30 09:59:24;;;;;;;55.20;39.17;;;;;;;4.06;100.00;100375.84;6178692;23;20025;-81
2021/12/30 10:01:50;;;;;;;60.65;40.38;;;;;;;4.07;100.00;100382.13;6182483;23;20435;-80
2021/12/30 10:04:16;;;;;;;58.30;41.42;;;;;;;4.16;100.00;100366.13;6155067;23;20025;-81
2021/12/30 10:06:47;;;;;;;53.17;40.25;;;;;;;4.23;100.00;100363.38;6156367;23;20017;-80
2021/12/30 10:09:15;;;;;;;49.22;36.63;;;;;;;4.30;100.00;100368.91;6105860;23;20347;-80
2021/12/30 10:11:49;;;;;;;50.92;36.05;;;;;;;4.32;100.00;100377.56;6155006;23;20453;-81
2021/12/30 10:14:34;;;;;;;51.25;37.95;;;;;;;4.35;100.00;100367.75;6153339;23;20016;-81
2021/12/30 10:17:20;;;;;;;48.92;36.35;;;;;;;4.43;100.00;100374.84;6154876;23;20458;-80
2021/12/30 10:19:47;;;;;;;48.63;36.63;;;;;;;4.41;100.00;100372.47;6180593;23;20451;-80
2021/12/30 10:22:16;;;;;;;50.28;36.70;;;;;;;4.48;100.00;100364.28;6180792;23;20013;-80
2021/12/30 10:24:42;;;;;;;46.70;35.88;;;;;;;4.46;100.00;100357.56;6180891;23;20083;-80
2021/12/30 10:27:08;;;;;;;45.63;35.13;;;;;;;4.40;100.00;100362.66;6154135;23;20009;-80
2021/12/30 10:29:44;;;;;;;47.25;35.45;;;;;;;4.26;100.00;100361.81;6128007;23;20167;-80
2021/12/30 10:32:21;;;;;;;44.13;35.33;;;;;;;4.32;100.00;100369.31;6155828;23;20017;-80
2021/12/30 10:35:06;;;;;;;50.90;36.78;;;;;;;4.40;100.00;100351.69;6156335;23;20093;-80
2021/12/30 10:37:33;;;;;;;46.92;35.70;;;;;;;4.32;100.00;100363.03;6182452;23;20317;-79
2021/12/30 10:39:58;;;;;;;52.03;37.10;;;;;;;4.30;100.00;100390.06;6182489;23;20415;-79
2021/12/30 10:42:25;;;;;;;50.50;37.30;;;;;;;4.29;100.00;100383.78;6156150;23;20009;-79
2021/12/30 10:45:00;;;;;;;45.60;35.63;;;;;;;4.35;100.00;100371.28;6155212;23;20036;-79
2021/12/30 10:47:31;;;;;;;46.85;36.17;;;;;;;4.37;100.00;100349.69;6131537;23;20351;-79
2021/12/30 10:50:03;;;;;;;49.15;36.78;;;;;;;4.41;100.00;100372.47;6182017;23;20017;-79
2021/12/30 10:52:29;;;;;;;48.33;37.28;;;;;;;4.43;100.00;100392.09;6182278;23;20135;-79
2021/12/30 10:54:56;;;;;;;48.65;37.22;;;;;;;4.44;100.00;100379.16;6155830;23;20009;-79
2021/12/30 10:57:27;;;;;;;51.13;37.58;;;;;;;4.41;100.00;100355.97;6155841;23;20070;-79
2021/12/30 10:59:53;;;;;;;50.53;37.80;;;;;;;4.52;100.00;100356.03;6155020;23;20043;-79
2021/12/30 11:02:21;;;;;;;53.33;38.83;;;;;;;4.50;100.00;100363.88;6130985;23;20017;-79
2021/12/30 11:04:50;;;;;;;46.65;36.13;;;;;;;4.47;100.00;100368.19;6155807;23;20016;-79
2021/12/30 11:07:18;;;;;;;46.00;35.17;;;;;;;4.48;100.00;100369.75;6182319;23;20013;-79
2021/12/30 11:10:00;;;;;;;49.10;36.47;;;;;;;4.54;100.00;100372.91;6181576;23;20021;-79
2021/12/30 11:12:30;;;;;;;53.25;38.03;;;;;;;4.49;100.00;100362.31;6131068;23;20028;-80
2021/12/30 11:14:56;;;;;;;50.70;36.70;;;;;;;4.47;100.00;100357.19;6155267;23;20092;-79